sensor_id;sensor_type;location;lat;lon;timestamp;P1;durP1;ratioP1;P2;durP2;ratioP2
62863;SDS011;48954;59.950;11.014;2023-04-08T05:30:17;4.80;;;2.90;;
62863;SDS011;48954;59.950;11.014;2023-04-08T05:33:03;5.20;;;3.00;;
62863;SDS011;48954;59.950;11.014;2023-04-08T05:36:25;3.20;;;2.30;;
62863;SDS011;48954;59.950;11.014;2023-04-08T05:39:06;4.40;;;2.60;;
62863;SDS011;48954;59.950;11.014;2023-04-08T05:42:08;3.60;;;2.20;;
62863;SDS011;48954;59.950;11.014;2023-04-08T06:03:51;2.60;;;1.50;;
62863;SDS011;48954;59.950;11.014;2023-04-08T06:06:58;4.10;;;2.20;;
62863;SDS011;48954;59.950;11.014;2023-04-08T06:10:23;2.90;;;1.80;;
62863;SDS011;48954;59.950;11.014;2023-04-08T06:21:41;4.30;;;3.00;;
62863;SDS011;48954;59.950;11.014;2023-04-08T06:28:26;2.90;;;2.00;;
62863;SDS011;48954;59.950;11.014;2023-04-08T06:31:47;5.70;;;2.60;;
62863;SDS011;48954;59.950;11.014;2023-04-08T06:34:47;4.20;;;1.90;;
62863;SDS011;48954;59.950;11.014;2023-04-08T06:37:29;5.70;;;2.60;;
62863;SDS011;48954;59.950;11.014;2023-04-08T06:40:10;2.50;;;1.50;;
62863;SDS011;48954;59.950;11.014;2023-04-08T06:42:56;3.40;;;2.40;;
62863;SDS011;48954;59.950;11.014;2023-04-08T06:48:29;2.50;;;1.60;;
62863;SDS011;48954;59.950;11.014;2023-04-08T06:51:40;3.30;;;1.90;;
62863;SDS011;48954;59.950;11.014;2023-04-08T06:54:43;3.20;;;2.10;;
62863;SDS011;48954;59.950;11.014;2023-04-08T06:57:37;4.40;;;2.40;;
62863;SDS011;48954;59.950;11.014;2023-04-08T07:00:21;4.10;;;2.40;;
62863;SDS011;48954;59.950;11.014;2023-04-08T07:03:45;4.30;;;2.90;;
62863;SDS011;48954;59.950;11.014;2023-04-08T07:09:32;4.30;;;1.90;;
62863;SDS011;48954;59.950;11.014;2023-04-08T07:12:22;3.50;;;2.20;;
62863;SDS011;48954;59.950;11.014;2023-04-08T07:18:30;5.70;;;2.80;;
62863;SDS011;48954;59.950;11.014;2023-04-08T07:21:39;4.90;;;3.30;;
62863;SDS011;48954;59.950;11.014;2023-04-08T07:24:25;3.90;;;2.20;;
62863;SDS011;48954;59.950;11.014;2023-04-08T07:27:08;3.20;;;1.90;;
62863;SDS011;48954;59.950;11.014;2023-04-08T08:33:31;4.20;;;3.30;;
62863;SDS011;48954;59.950;11.014;2023-04-08T08:36:24;4.60;;;3.20;;
62863;SDS011;48954;59.950;11.014;2023-04-08T08:45:40;8.10;;;3.10;;
62863;SDS011;48954;59.950;11.014;2023-04-08T08:48:21;3.60;;;2.90;;
62863;SDS011;48954;59.950;11.014;2023-04-08T08:54:28;4.80;;;3.60;;
62863;SDS011;48954;59.950;11.014;2023-04-08T08:59:36;6.50;;;3.90;;
62863;SDS011;48954;59.950;11.014;2023-04-08T09:02:34;5.70;;;3.60;;
62863;SDS011;48954;59.950;11.014;2023-04-08T09:11:15;5.50;;;2.80;;
62863;SDS011;48954;59.950;11.014;2023-04-08T09:13:57;4.70;;;3.30;;
62863;SDS011;48954;59.950;11.014;2023-04-08T09:16:41;5.90;;;3.30;;
62863;SDS011;48954;59.950;11.014;2023-04-08T09:19:10;4.60;;;3.20;;
62863;SDS011;48954;59.950;11.014;2023-04-08T09:21:40;3.40;;;2.90;;
62863;SDS011;48954;59.950;11.014;2023-04-08T09:24:28;3.30;;;2.80;;
62863;SDS011;48954;59.950;11.014;2023-04-08T09:27:32;5.60;;;3.60;;
62863;SDS011;48954;59.950;11.014;2023-04-08T09:30:16;4.60;;;3.10;;
62863;SDS011;48954;59.950;11.014;2023-04-08T09:32:56;4.20;;;3.00;;
62863;SDS011;48954;59.950;11.014;2023-04-08T09:35:24;3.60;;;3.00;;
62863;SDS011;48954;59.950;11.014;2023-04-08T09:37:52;4.10;;;3.20;;
62863;SDS011;48954;59.950;11.014;2023-04-08T09:40:33;6.30;;;3.70;;
62863;SDS011;48954;59.950;11.014;2023-04-08T09:43:03;5.40;;;3.40;;
62863;SDS011;48954;59.950;11.014;2023-04-08T09:45:47;4.10;;;3.00;;
62863;SDS011;48954;59.950;11.014;2023-04-08T09:48:30;4.40;;;3.10;;
62863;SDS011;48954;59.950;11.014;2023-04-08T09:51:47;3.80;;;2.70;;
62863;SDS011;48954;59.950;11.014;2023-04-08T09:58:04;4.20;;;2.30;;
62863;SDS011;48954;59.950;11.014;2023-04-08T10:00:59;3.20;;;2.10;;
62863;SDS011;48954;59.950;11.014;2023-04-08T10:03:45;3.60;;;3.00;;
62863;SDS011;48954;59.950;11.014;2023-04-08T10:06:33;7.30;;;2.50;;
62863;SDS011;48954;59.950;11.014;2023-04-08T10:09:16;3.90;;;2.80;;
62863;SDS011;48954;59.950;11.014;2023-04-08T10:12:02;6.10;;;4.90;;
62863;SDS011;48954;59.950;11.014;2023-04-08T10:21:08;2.40;;;2.00;;
62863;SDS011;48954;59.950;11.014;2023-04-08T10:24:22;2.70;;;2.00;;
62863;SDS011;48954;59.950;11.014;2023-04-08T10:27:03;5.70;;;4.10;;
62863;SDS011;48954;59.950;11.014;2023-04-08T10:30:14;9.20;;;7.60;;
62863;SDS011;48954;59.950;11.014;2023-04-08T10:33:19;3.80;;;2.60;;
62863;SDS011;48954;59.950;11.014;2023-04-08T10:38:17;4.00;;;2.30;;
62863;SDS011;48954;59.950;11.014;2023-04-08T10:40:48;9.00;;;5.30;;
62863;SDS011;48954;59.950;11.014;2023-04-08T10:43:31;3.90;;;2.60;;
62863;SDS011;48954;59.950;11.014;2023-04-08T10:45:58;3.60;;;3.20;;
62863;SDS011;48954;59.950;11.014;2023-04-08T10:48:34;5.10;;;4.30;;
62863;SDS011;48954;59.950;11.014;2023-04-08T10:51:04;2.80;;;2.50;;
62863;SDS011;48954;59.950;11.014;2023-04-08T10:53:33;4.00;;;3.00;;
62863;SDS011;48954;59.950;11.014;2023-04-08T10:56:04;3.20;;;2.40;;
62863;SDS011;48954;59.950;11.014;2023-04-08T10:58:34;5.30;;;3.40;;
62863;SDS011;48954;59.950;11.014;2023-04-08T11:01:15;9.40;;;3.30;;
62863;SDS011;48954;59.950;11.014;2023-04-08T11:03:43;8.90;;;6.70;;
62863;SDS011;48954;59.950;11.014;2023-04-08T11:06:21;13.30;;;11.40;;
62863;SDS011;48954;59.950;11.014;2023-04-08T11:08:48;6.50;;;4.90;;
62863;SDS011;48954;59.950;11.014;2023-04-08T11:11:37;5.50;;;4.10;;
62863;SDS011;48954;59.950;11.014;2023-04-08T11:14:16;3.10;;;1.90;;
62863;SDS011;48954;59.950;11.014;2023-04-08T11:16:45;6.90;;;5.20;;
62863;SDS011;48954;59.950;11.014;2023-04-08T11:19:14;3.30;;;1.80;;
62863;SDS011;48954;59.950;11.014;2023-04-08T11:21:43;1.80;;;1.40;;
62863;SDS011;48954;59.950;11.014;2023-04-08T11:24:10;5.60;;;5.00;;
62863;SDS011;48954;59.950;11.014;2023-04-08T11:26:37;2.70;;;1.70;;
62863;SDS011;48954;59.950;11.014;2023-04-08T11:29:04;2.00;;;1.20;;
62863;SDS011;48954;59.950;11.014;2023-04-08T11:31:35;2.20;;;1.70;;
62863;SDS011;48954;59.950;11.014;2023-04-08T11:34:29;6.40;;;5.40;;
62863;SDS011;48954;59.950;11.014;2023-04-08T11:36:55;4.20;;;2.60;;
62863;SDS011;48954;59.950;11.014;2023-04-08T11:39:24;3.20;;;1.80;;
62863;SDS011;48954;59.950;11.014;2023-04-08T11:41:51;10.40;;;6.30;;
62863;SDS011;48954;59.950;11.014;2023-04-08T11:44:17;3.90;;;2.60;;
62863;SDS011;48954;59.950;11.014;2023-04-08T11:46:51;3.20;;;1.90;;
62863;SDS011;48954;59.950;11.014;2023-04-08T11:49:17;3.70;;;1.70;;
62863;SDS011;48954;59.950;11.014;2023-04-08T11:51:55;4.30;;;1.50;;
62863;SDS011;48954;59.950;11.014;2023-04-08T11:54:26;2.30;;;1.50;;
62863;SDS011;48954;59.950;11.014;2023-04-08T11:56:53;2.30;;;1.70;;
62863;SDS011;48954;59.950;11.014;2023-04-08T11:59:20;3.80;;;1.50;;
62863;SDS011;48954;59.950;11.014;2023-04-08T12:01:48;1.70;;;1.20;;
62863;SDS011;48954;59.950;11.014;2023-04-08T12:04:15;1.70;;;1.20;;
62863;SDS011;48954;59.950;11.014;2023-04-08T12:06:41;1.80;;;1.20;;
62863;SDS011;48954;59.950;11.014;2023-04-08T12:09:08;3.90;;;1.10;;
62863;SDS011;48954;59.950;11.014;2023-04-08T12:11:41;1.30;;;1.00;;
62863;SDS011;48954;59.950;11.014;2023-04-08T12:14:08;1.40;;;1.10;;
62863;SDS011;48954;59.950;11.014;2023-04-08T12:16:34;1.70;;;1.20;;
62863;SDS011;48954;59.950;11.014;2023-04-08T12:19:01;2.00;;;0.90;;
62863;SDS011;48954;59.950;11.014;2023-04-08T12:21:30;1.90;;;1.00;;
62863;SDS011;48954;59.950;11.014;2023-04-08T12:23:57;1.60;;;1.10;;
62863;SDS011;48954;59.950;11.014;2023-04-08T12:26:27;2.10;;;1.20;;
62863;SDS011;48954;59.950;11.014;2023-04-08T12:29:07;1.70;;;1.10;;
62863;SDS011;48954;59.950;11.014;2023-04-08T12:31:34;1.50;;;1.20;;
62863;SDS011;48954;59.950;11.014;2023-04-08T12:34:03;1.80;;;1.20;;
62863;SDS011;48954;59.950;11.014;2023-04-08T12:36:39;1.60;;;1.00;;
62863;SDS011;48954;59.950;11.014;2023-04-08T12:39:10;1.90;;;1.40;;
62863;SDS011;48954;59.950;11.014;2023-04-08T12:41:38;2.00;;;1.40;;
62863;SDS011;48954;59.950;11.014;2023-04-08T12:44:15;1.50;;;0.90;;
62863;SDS011;48954;59.950;11.014;2023-04-08T12:46:43;5.30;;;1.10;;
62863;SDS011;48954;59.950;11.014;2023-04-08T12:49:12;1.80;;;1.10;;
62863;SDS011;48954;59.950;11.014;2023-04-08T12:51:38;2.70;;;1.40;;
62863;SDS011;48954;59.950;11.014;2023-04-08T12:54:04;3.40;;;1.20;;
62863;SDS011;48954;59.950;11.014;2023-04-08T12:56:38;1.70;;;1.10;;
62863;SDS011;48954;59.950;11.014;2023-04-08T12:59:08;2.90;;;1.50;;
62863;SDS011;48954;59.950;11.014;2023-04-08T13:01:34;1.90;;;1.30;;
62863;SDS011;48954;59.950;11.014;2023-04-08T13:04:01;1.60;;;1.10;;
62863;SDS011;48954;59.950;11.014;2023-04-08T13:06:28;4.30;;;1.40;;
62863;SDS011;48954;59.950;11.014;2023-04-08T13:09:23;3.30;;;1.40;;
62863;SDS011;48954;59.950;11.014;2023-04-08T13:11:52;5.80;;;1.60;;
62863;SDS011;48954;59.950;11.014;2023-04-08T13:14:33;1.90;;;1.20;;
62863;SDS011;48954;59.950;11.014;2023-04-08T13:17:15;1.40;;;1.00;;
62863;SDS011;48954;59.950;11.014;2023-04-08T13:19:41;2.50;;;1.10;;
62863;SDS011;48954;59.950;11.014;2023-04-08T13:22:10;2.00;;;1.30;;
62863;SDS011;48954;59.950;11.014;2023-04-08T13:24:42;3.80;;;1.40;;
62863;SDS011;48954;59.950;11.014;2023-04-08T13:27:09;1.80;;;1.40;;
62863;SDS011;48954;59.950;11.014;2023-04-08T13:29:57;2.30;;;1.40;;
62863;SDS011;48954;59.950;11.014;2023-04-08T13:32:24;1.80;;;1.10;;
62863;SDS011;48954;59.950;11.014;2023-04-08T13:34:54;1.90;;;1.20;;
62863;SDS011;48954;59.950;11.014;2023-04-08T13:37:26;2.40;;;1.00;;
62863;SDS011;48954;59.950;11.014;2023-04-08T13:39:53;1.90;;;1.30;;
62863;SDS011;48954;59.950;11.014;2023-04-08T13:42:20;1.60;;;1.20;;
62863;SDS011;48954;59.950;11.014;2023-04-08T13:44:46;1.90;;;1.30;;
62863;SDS011;48954;59.950;11.014;2023-04-08T13:47:14;1.80;;;1.20;;
62863;SDS011;48954;59.950;11.014;2023-04-08T13:49:41;2.60;;;1.20;;
62863;SDS011;48954;59.950;11.014;2023-04-08T13:52:07;1.70;;;1.10;;
62863;SDS011;48954;59.950;11.014;2023-04-08T13:54:35;1.50;;;1.10;;
62863;SDS011;48954;59.950;11.014;2023-04-08T13:57:04;2.10;;;1.40;;
62863;SDS011;48954;59.950;11.014;2023-04-08T13:59:45;2.90;;;1.20;;
62863;SDS011;48954;59.950;11.014;2023-04-08T14:02:12;2.30;;;1.30;;
62863;SDS011;48954;59.950;11.014;2023-04-08T14:04:39;1.60;;;1.20;;
62863;SDS011;48954;59.950;11.014;2023-04-08T14:07:07;2.40;;;1.40;;
62863;SDS011;48954;59.950;11.014;2023-04-08T14:09:50;2.80;;;1.20;;
62863;SDS011;48954;59.950;11.014;2023-04-08T14:12:16;3.60;;;1.30;;
62863;SDS011;48954;59.950;11.014;2023-04-08T14:14:42;1.80;;;1.20;;
62863;SDS011;48954;59.950;11.014;2023-04-08T14:17:12;1.90;;;1.10;;
62863;SDS011;48954;59.950;11.014;2023-04-08T14:19:40;4.40;;;1.40;;
62863;SDS011;48954;59.950;11.014;2023-04-08T14:22:07;1.80;;;1.00;;
62863;SDS011;48954;59.950;11.014;2023-04-08T14:24:35;1.40;;;1.10;;
62863;SDS011;48954;59.950;11.014;2023-04-08T14:27:02;4.50;;;1.20;;
62863;SDS011;48954;59.950;11.014;2023-04-08T14:29:28;2.20;;;1.10;;
62863;SDS011;48954;59.950;11.014;2023-04-08T14:31:56;3.80;;;1.40;;
62863;SDS011;48954;59.950;11.014;2023-04-08T14:34:27;2.20;;;1.20;;
62863;SDS011;48954;59.950;11.014;2023-04-08T14:37:05;1.50;;;1.10;;
62863;SDS011;48954;59.950;11.014;2023-04-08T14:39:46;4.40;;;1.20;;
62863;SDS011;48954;59.950;11.014;2023-04-08T14:42:29;2.80;;;1.40;;
62863;SDS011;48954;59.950;11.014;2023-04-08T14:44:56;2.70;;;1.20;;
62863;SDS011;48954;59.950;11.014;2023-04-08T14:47:23;2.10;;;1.20;;
62863;SDS011;48954;59.950;11.014;2023-04-08T14:49:52;2.00;;;1.10;;
62863;SDS011;48954;59.950;11.014;2023-04-08T14:52:18;3.10;;;1.10;;
62863;SDS011;48954;59.950;11.014;2023-04-08T14:54:44;4.10;;;1.30;;
62863;SDS011;48954;59.950;11.014;2023-04-08T14:57:16;1.70;;;1.10;;
62863;SDS011;48954;59.950;11.014;2023-04-08T14:59:57;2.70;;;1.30;;
62863;SDS011;48954;59.950;11.014;2023-04-08T15:02:27;1.50;;;1.10;;
62863;SDS011;48954;59.950;11.014;2023-04-08T15:04:53;1.50;;;1.10;;
62863;SDS011;48954;59.950;11.014;2023-04-08T15:07:21;2.00;;;1.00;;
62863;SDS011;48954;59.950;11.014;2023-04-08T15:09:48;2.10;;;1.20;;
62863;SDS011;48954;59.950;11.014;2023-04-08T15:12:20;1.70;;;1.20;;
62863;SDS011;48954;59.950;11.014;2023-04-08T15:14:46;2.70;;;1.20;;
62863;SDS011;48954;59.950;11.014;2023-04-08T15:17:18;2.10;;;1.40;;
62863;SDS011;48954;59.950;11.014;2023-04-08T15:19:53;1.90;;;1.00;;
62863;SDS011;48954;59.950;11.014;2023-04-08T15:22:20;1.10;;;0.80;;
62863;SDS011;48954;59.950;11.014;2023-04-08T15:24:48;2.50;;;1.10;;
62863;SDS011;48954;59.950;11.014;2023-04-08T15:27:15;1.60;;;0.90;;
62863;SDS011;48954;59.950;11.014;2023-04-08T15:29:42;2.90;;;1.20;;
62863;SDS011;48954;59.950;11.014;2023-04-08T15:32:22;1.70;;;1.00;;
62863;SDS011;48954;59.950;11.014;2023-04-08T15:34:49;2.10;;;0.90;;
62863;SDS011;48954;59.950;11.014;2023-04-08T15:37:44;1.20;;;1.00;;
62863;SDS011;48954;59.950;11.014;2023-04-08T15:40:25;2.40;;;1.00;;
62863;SDS011;48954;59.950;11.014;2023-04-08T15:42:56;1.80;;;1.10;;
62863;SDS011;48954;59.950;11.014;2023-04-08T15:45:23;1.90;;;1.10;;
62863;SDS011;48954;59.950;11.014;2023-04-08T15:47:56;1.80;;;1.00;;
62863;SDS011;48954;59.950;11.014;2023-04-08T15:50:26;1.90;;;1.10;;
62863;SDS011;48954;59.950;11.014;2023-04-08T15:52:53;2.30;;;1.30;;
62863;SDS011;48954;59.950;11.014;2023-04-08T15:55:20;2.50;;;1.00;;
62863;SDS011;48954;59.950;11.014;2023-04-08T15:57:48;3.30;;;1.20;;
62863;SDS011;48954;59.950;11.014;2023-04-08T16:00:14;2.70;;;1.40;;
62863;SDS011;48954;59.950;11.014;2023-04-08T16:02:42;1.80;;;1.20;;
62863;SDS011;48954;59.950;11.014;2023-04-08T16:05:16;1.40;;;1.10;;
62863;SDS011;48954;59.950;11.014;2023-04-08T16:07:43;2.90;;;1.40;;
62863;SDS011;48954;59.950;11.014;2023-04-08T16:10:11;4.10;;;1.80;;
62863;SDS011;48954;59.950;11.014;2023-04-08T16:12:43;5.30;;;3.10;;
62863;SDS011;48954;59.950;11.014;2023-04-08T16:15:09;5.10;;;2.30;;
62863;SDS011;48954;59.950;11.014;2023-04-08T16:17:38;2.80;;;1.60;;
62863;SDS011;48954;59.950;11.014;2023-04-08T16:20:10;2.80;;;1.50;;
62863;SDS011;48954;59.950;11.014;2023-04-08T16:22:40;2.50;;;1.20;;
62863;SDS011;48954;59.950;11.014;2023-04-08T16:25:06;2.30;;;1.20;;
62863;SDS011;48954;59.950;11.014;2023-04-08T16:27:33;2.20;;;1.20;;
62863;SDS011;48954;59.950;11.014;2023-04-08T16:30:01;5.00;;;1.40;;
62863;SDS011;48954;59.950;11.014;2023-04-08T16:32:29;11.70;;;1.90;;
62863;SDS011;48954;59.950;11.014;2023-04-08T16:35:09;2.40;;;1.30;;
62863;SDS011;48954;59.950;11.014;2023-04-08T16:37:44;2.10;;;1.30;;
62863;SDS011;48954;59.950;11.014;2023-04-08T16:40:23;1.90;;;1.10;;
62863;SDS011;48954;59.950;11.014;2023-04-08T16:43:04;2.10;;;1.20;;
62863;SDS011;48954;59.950;11.014;2023-04-08T16:45:45;3.00;;;1.20;;
62863;SDS011;48954;59.950;11.014;2023-04-08T16:48:14;4.80;;;1.50;;
62863;SDS011;48954;59.950;11.014;2023-04-08T16:50:56;3.70;;;1.40;;
62863;SDS011;48954;59.950;11.014;2023-04-08T16:53:24;3.10;;;1.60;;
62863;SDS011;48954;59.950;11.014;2023-04-08T16:55:59;2.00;;;1.20;;
62863;SDS011;48954;59.950;11.014;2023-04-08T16:58:42;2.70;;;1.40;;
62863;SDS011;48954;59.950;11.014;2023-04-08T17:01:14;4.50;;;1.30;;
62863;SDS011;48954;59.950;11.014;2023-04-08T17:03:46;2.10;;;1.50;;
62863;SDS011;48954;59.950;11.014;2023-04-08T17:06:39;2.10;;;1.30;;
62863;SDS011;48954;59.950;11.014;2023-04-08T17:09:06;5.10;;;1.50;;
62863;SDS011;48954;59.950;11.014;2023-04-08T17:11:33;2.80;;;1.30;;
62863;SDS011;48954;59.950;11.014;2023-04-08T17:14:01;6.60;;;1.40;;
62863;SDS011;48954;59.950;11.014;2023-04-08T17:16:36;3.70;;;1.40;;
62863;SDS011;48954;59.950;11.014;2023-04-08T17:19:04;5.50;;;1.40;;
62863;SDS011;48954;59.950;11.014;2023-04-08T17:21:34;2.10;;;1.30;;
62863;SDS011;48954;59.950;11.014;2023-04-08T17:24:04;8.50;;;1.40;;
62863;SDS011;48954;59.950;11.014;2023-04-08T17:26:31;2.90;;;1.50;;
62863;SDS011;48954;59.950;11.014;2023-04-08T17:29:02;3.60;;;1.50;;
62863;SDS011;48954;59.950;11.014;2023-04-08T17:31:28;2.70;;;1.30;;
62863;SDS011;48954;59.950;11.014;2023-04-08T17:33:56;3.50;;;1.40;;
62863;SDS011;48954;59.950;11.014;2023-04-08T17:36:36;2.20;;;1.40;;
62863;SDS011;48954;59.950;11.014;2023-04-08T17:39:05;8.00;;;1.60;;
62863;SDS011;48954;59.950;11.014;2023-04-08T17:41:36;3.60;;;1.60;;
62863;SDS011;48954;59.950;11.014;2023-04-08T17:44:12;4.80;;;1.60;;
62863;SDS011;48954;59.950;11.014;2023-04-08T17:47:32;3.60;;;1.60;;
62863;SDS011;48954;59.950;11.014;2023-04-08T17:50:00;6.90;;;2.00;;
62863;SDS011;48954;59.950;11.014;2023-04-08T17:52:30;3.40;;;1.90;;
62863;SDS011;48954;59.950;11.014;2023-04-08T17:55:41;5.00;;;2.20;;
62863;SDS011;48954;59.950;11.014;2023-04-08T17:58:10;7.90;;;2.50;;
62863;SDS011;48954;59.950;11.014;2023-04-08T18:00:41;9.90;;;3.20;;
62863;SDS011;48954;59.950;11.014;2023-04-08T18:03:08;6.70;;;3.50;;
62863;SDS011;48954;59.950;11.014;2023-04-08T18:05:48;8.80;;;3.50;;
62863;SDS011;48954;59.950;11.014;2023-04-08T18:08:35;7.10;;;3.60;;
62863;SDS011;48954;59.950;11.014;2023-04-08T18:11:17;7.80;;;3.50;;
62863;SDS011;48954;59.950;11.014;2023-04-08T18:14:02;11.10;;;3.90;;
62863;SDS011;48954;59.950;11.014;2023-04-08T18:16:43;8.00;;;3.50;;
62863;SDS011;48954;59.950;11.014;2023-04-08T18:19:25;10.90;;;3.30;;
62863;SDS011;48954;59.950;11.014;2023-04-08T18:21:55;3.60;;;2.80;;
62863;SDS011;48954;59.950;11.014;2023-04-08T18:24:47;7.00;;;2.70;;
62863;SDS011;48954;59.950;11.014;2023-04-08T18:27:29;6.40;;;3.10;;
62863;SDS011;48954;59.950;11.014;2023-04-08T18:30:10;11.80;;;4.50;;
62863;SDS011;48954;59.950;11.014;2023-04-08T18:32:50;10.60;;;5.20;;
62863;SDS011;48954;59.950;11.014;2023-04-08T18:35:20;18.90;;;6.20;;
62863;SDS011;48954;59.950;11.014;2023-04-08T18:37:47;17.90;;;7.60;;
62863;SDS011;48954;59.950;11.014;2023-04-08T18:40:29;19.30;;;8.30;;
62863;SDS011;48954;59.950;11.014;2023-04-08T18:43:11;15.40;;;8.20;;
62863;SDS011;48954;59.950;11.014;2023-04-08T18:45:41;16.60;;;7.90;;
62863;SDS011;48954;59.950;11.014;2023-04-08T18:48:14;14.30;;;7.90;;
62863;SDS011;48954;59.950;11.014;2023-04-08T18:50:48;12.60;;;8.80;;
62863;SDS011;48954;59.950;11.014;2023-04-08T18:53:15;12.80;;;6.50;;
62863;SDS011;48954;59.950;11.014;2023-04-08T18:55:44;9.90;;;4.30;;
62863;SDS011;48954;59.950;11.014;2023-04-08T18:58:24;12.20;;;7.80;;
62863;SDS011;48954;59.950;11.014;2023-04-08T19:00:52;9.70;;;4.60;;
62863;SDS011;48954;59.950;11.014;2023-04-08T19:03:20;6.50;;;3.70;;
62863;SDS011;48954;59.950;11.014;2023-04-08T19:05:48;5.00;;;2.50;;
62863;SDS011;48954;59.950;11.014;2023-04-08T19:08:28;4.20;;;2.20;;
62863;SDS011;48954;59.950;11.014;2023-04-08T19:11:04;5.20;;;3.20;;
62863;SDS011;48954;59.950;11.014;2023-04-08T19:13:33;5.90;;;3.40;;
62863;SDS011;48954;59.950;11.014;2023-04-08T19:16:15;8.10;;;3.70;;
62863;SDS011;48954;59.950;11.014;2023-04-08T19:18:46;5.90;;;3.40;;
62863;SDS011;48954;59.950;11.014;2023-04-08T19:21:29;7.10;;;4.20;;
62863;SDS011;48954;59.950;11.014;2023-04-08T19:24:14;9.20;;;4.60;;
62863;SDS011;48954;59.950;11.014;2023-04-08T19:26:55;12.10;;;4.50;;
62863;SDS011;48954;59.950;11.014;2023-04-08T19:29:28;10.60;;;4.50;;
62863;SDS011;48954;59.950;11.014;2023-04-08T19:32:08;7.20;;;4.20;;
62863;SDS011;48954;59.950;11.014;2023-04-08T19:34:49;23.40;;;4.60;;
62863;SDS011;48954;59.950;11.014;2023-04-08T19:37:31;7.30;;;4.20;;
62863;SDS011;48954;59.950;11.014;2023-04-08T19:40:11;12.70;;;4.40;;
62863;SDS011;48954;59.950;11.014;2023-04-08T19:42:52;9.20;;;4.70;;
62863;SDS011;48954;59.950;11.014;2023-04-08T19:45:32;8.60;;;4.50;;
62863;SDS011;48954;59.950;11.014;2023-04-08T19:48:14;6.40;;;3.90;;
62863;SDS011;48954;59.950;11.014;2023-04-08T19:50:45;9.80;;;4.20;;
62863;SDS011;48954;59.950;11.014;2023-04-08T19:53:11;9.80;;;4.50;;
62863;SDS011;48954;59.950;11.014;2023-04-08T19:55:38;9.00;;;5.40;;
62863;SDS011;48954;59.950;11.014;2023-04-08T19:58:08;12.70;;;7.10;;
62863;SDS011;48954;59.950;11.014;2023-04-08T20:00:35;10.90;;;6.20;;
62863;SDS011;48954;59.950;11.014;2023-04-08T20:03:02;16.50;;;7.00;;
62863;SDS011;48954;59.950;11.014;2023-04-08T20:05:29;12.70;;;6.10;;
62863;SDS011;48954;59.950;11.014;2023-04-08T20:08:13;17.80;;;6.40;;
62863;SDS011;48954;59.950;11.014;2023-04-08T20:10:53;16.60;;;7.90;;
62863;SDS011;48954;59.950;11.014;2023-04-08T20:13:21;15.10;;;6.90;;
62863;SDS011;48954;59.950;11.014;2023-04-08T20:16:01;15.40;;;6.60;;
62863;SDS011;48954;59.950;11.014;2023-04-08T20:21:21;13.00;;;5.30;;
62863;SDS011;48954;59.950;11.014;2023-04-08T20:23:47;11.70;;;4.70;;
62863;SDS011;48954;59.950;11.014;2023-04-08T20:26:39;8.70;;;4.20;;
62863;SDS011;48954;59.950;11.014;2023-04-08T20:29:21;6.50;;;3.30;;
62863;SDS011;48954;59.950;11.014;2023-04-08T20:32:03;4.70;;;2.60;;
62863;SDS011;48954;59.950;11.014;2023-04-08T20:34:47;6.60;;;3.30;;
62863;SDS011;48954;59.950;11.014;2023-04-08T20:37:59;6.10;;;2.80;;
62863;SDS011;48954;59.950;11.014;2023-04-08T20:40:52;7.50;;;2.60;;
62863;SDS011;48954;59.950;11.014;2023-04-08T20:43:36;5.40;;;2.80;;
62863;SDS011;48954;59.950;11.014;2023-04-08T20:46:21;5.70;;;2.60;;
62863;SDS011;48954;59.950;11.014;2023-04-08T20:49:03;6.60;;;2.70;;
62863;SDS011;48954;59.950;11.014;2023-04-08T20:51:49;6.90;;;2.70;;
62863;SDS011;48954;59.950;11.014;2023-04-08T20:54:30;5.90;;;2.80;;
62863;SDS011;48954;59.950;11.014;2023-04-08T20:57:11;7.80;;;3.30;;
62863;SDS011;48954;59.950;11.014;2023-04-08T20:59:52;9.50;;;3.60;;
62863;SDS011;48954;59.950;11.014;2023-04-08T21:02:33;7.60;;;3.80;;
62863;SDS011;48954;59.950;11.014;2023-04-08T21:05:13;7.60;;;3.20;;
62863;SDS011;48954;59.950;11.014;2023-04-08T21:07:41;9.20;;;4.30;;
62863;SDS011;48954;59.950;11.014;2023-04-08T21:10:25;11.40;;;4.50;;
62863;SDS011;48954;59.950;11.014;2023-04-08T21:13:06;10.30;;;5.10;;
62863;SDS011;48954;59.950;11.014;2023-04-08T21:15:46;7.00;;;3.90;;
62863;SDS011;48954;59.950;11.014;2023-04-08T21:18:27;19.60;;;9.00;;
62863;SDS011;48954;59.950;11.014;2023-04-08T21:21:09;9.60;;;5.10;;
62863;SDS011;48954;59.950;11.014;2023-04-08T21:23:42;8.00;;;4.70;;
62863;SDS011;48954;59.950;11.014;2023-04-08T21:26:22;9.40;;;3.80;;
62863;SDS011;48954;59.950;11.014;2023-04-08T21:29:03;8.90;;;4.80;;
62863;SDS011;48954;59.950;11.014;2023-04-08T21:31:47;9.40;;;4.40;;
62863;SDS011;48954;59.950;11.014;2023-04-08T21:34:43;6.90;;;3.70;;
62863;SDS011;48954;59.950;11.014;2023-04-08T21:37:24;7.40;;;3.50;;
62863;SDS011;48954;59.950;11.014;2023-04-08T21:40:06;9.90;;;3.90;;
62863;SDS011;48954;59.950;11.014;2023-04-08T21:42:50;7.00;;;3.50;;
62863;SDS011;48954;59.950;11.014;2023-04-08T21:45:19;7.00;;;4.20;;
62863;SDS011;48954;59.950;11.014;2023-04-08T21:47:55;6.80;;;3.00;;
62863;SDS011;48954;59.950;11.014;2023-04-08T21:50:36;6.60;;;3.00;;
62863;SDS011;48954;59.950;11.014;2023-04-08T21:53:25;4.10;;;2.50;;
62863;SDS011;48954;59.950;11.014;2023-04-08T21:56:06;5.40;;;3.20;;
62863;SDS011;48954;59.950;11.014;2023-04-08T21:59:11;6.80;;;4.60;;
62863;SDS011;48954;59.950;11.014;2023-04-08T22:01:52;5.90;;;3.60;;
62863;SDS011;48954;59.950;11.014;2023-04-08T22:04:33;7.20;;;3.60;;
62863;SDS011;48954;59.950;11.014;2023-04-08T22:07:14;5.70;;;3.00;;
62863;SDS011;48954;59.950;11.014;2023-04-08T22:09:55;8.50;;;3.10;;
62863;SDS011;48954;59.950;11.014;2023-04-08T22:12:37;5.70;;;3.40;;
62863;SDS011;48954;59.950;11.014;2023-04-08T22:15:13;9.20;;;3.70;;
62863;SDS011;48954;59.950;11.014;2023-04-08T22:17:39;6.10;;;3.90;;
62863;SDS011;48954;59.950;11.014;2023-04-08T22:20:05;4.90;;;2.80;;
62863;SDS011;48954;59.950;11.014;2023-04-08T22:22:49;4.90;;;3.30;;
62863;SDS011;48954;59.950;11.014;2023-04-08T22:25:33;5.80;;;2.90;;
62863;SDS011;48954;59.950;11.014;2023-04-08T22:28:00;6.10;;;3.00;;
62863;SDS011;48954;59.950;11.014;2023-04-08T22:30:44;6.20;;;3.10;;
62863;SDS011;48954;59.950;11.014;2023-04-08T22:33:22;9.20;;;3.00;;
62863;SDS011;48954;59.950;11.014;2023-04-08T22:35:48;12.40;;;3.80;;
62863;SDS011;48954;59.950;11.014;2023-04-08T22:38:14;12.50;;;5.00;;
62863;SDS011;48954;59.950;11.014;2023-04-08T22:40:41;10.00;;;4.40;;
62863;SDS011;48954;59.950;11.014;2023-04-08T22:43:07;10.30;;;3.40;;
62863;SDS011;48954;59.950;11.014;2023-04-08T22:45:35;8.50;;;4.20;;
62863;SDS011;48954;59.950;11.014;2023-04-08T22:48:10;8.30;;;3.80;;
62863;SDS011;48954;59.950;11.014;2023-04-08T22:50:36;6.40;;;3.40;;
62863;SDS011;48954;59.950;11.014;2023-04-08T22:53:04;8.20;;;3.50;;
62863;SDS011;48954;59.950;11.014;2023-04-08T22:55:38;8.40;;;3.60;;
62863;SDS011;48954;59.950;11.014;2023-04-08T22:58:06;9.20;;;3.60;;
62863;SDS011;48954;59.950;11.014;2023-04-08T23:00:32;7.90;;;3.40;;
62863;SDS011;48954;59.950;11.014;2023-04-08T23:02:59;6.40;;;3.40;;
62863;SDS011;48954;59.950;11.014;2023-04-08T23:05:26;8.00;;;3.00;;
62863;SDS011;48954;59.950;11.014;2023-04-08T23:07:53;6.10;;;2.90;;
62863;SDS011;48954;59.950;11.014;2023-04-08T23:10:20;6.20;;;3.20;;
62863;SDS011;48954;59.950;11.014;2023-04-08T23:12:47;5.60;;;2.90;;
62863;SDS011;48954;59.950;11.014;2023-04-08T23:15:13;5.20;;;2.40;;